sensor_id;sensor_type;location;lat;lon;timestamp;pressure;altitude;pressure_sealevel;temperature;humidity
49841;BME280;35738;49.890;5.930;2023-07-31T00:01:32;96085.69;;;12.64;100.00
49841;BME280;35738;49.890;5.930;2023-07-31T00:03:58;96083.25;;;12.63;100.00
49841;BME280;35738;49.890;5.930;2023-07-31T00:06:25;96102.56;;;12.63;100.00
49841;BME280;35738;49.890;5.930;2023-07-31T00:08:52;96116.34;;;12.63;100.00
49841;BME280;35738;49.890;5.930;2023-07-31T00:11:18;96108.75;;;12.60;100.00
49841;BME280;35738;49.890;5.930;2023-07-31T00:13:45;96135.19;;;12.61;100.00
49841;BME280;35738;49.890;5.930;2023-07-31T00:16:11;96137.16;;;12.60;100.00
49841;BME280;35738;49.890;5.930;2023-07-31T00:18:38;96139.09;;;12.60;100.00
49841;BME280;35738;49.890;5.930;2023-07-31T00:21:04;96143.47;;;12.61;100.00
49841;BME280;35738;49.890;5.930;2023-07-31T00:23:31;96136.50;;;12.63;100.00
49841;BME280;35738;49.890;5.930;2023-07-31T00:25:58;96151.09;;;12.64;100.00
49841;BME280;35738;49.890;5.930;2023-07-31T00:28:24;96150.31;;;12.63;100.00
49841;BME280;35738;49.890;5.930;2023-07-31T00:30:51;96174.00;;;12.64;100.00
49841;BME280;35738;49.890;5.930;2023-07-31T00:33:18;96184.69;;;12.66;100.00
49841;BME280;35738;49.890;5.930;2023-07-31T00:35:44;96178.38;;;12.65;100.00
49841;BME280;35738;49.890;5.930;2023-07-31T00:38:11;96198.16;;;12.67;100.00
49841;BME280;35738;49.890;5.930;2023-07-31T00:40:38;96194.25;;;12.68;100.00
49841;BME280;35738;49.890;5.930;2023-07-31T00:43:04;96201.72;;;12.68;100.00
49841;BME280;35738;49.890;5.930;2023-07-31T00:45:32;96213.22;;;12.70;100.00
49841;BME280;35738;49.890;5.930;2023-07-31T00:47:59;96211.28;;;12.70;100.00
49841;BME280;35738;49.890;5.930;2023-07-31T00:50:26;96194.72;;;12.70;100.00
49841;BME280;35738;49.890;5.930;2023-07-31T00:52:54;96198.28;;;12.71;100.00
49841;BME280;35738;49.890;5.930;2023-07-31T00:55:21;96188.88;;;12.72;100.00
49841;BME280;35738;49.890;5.930;2023-07-31T00:57:49;96197.94;;;12.72;100.00
49841;BME280;35738;49.890;5.930;2023-07-31T01:00:16;96209.13;;;12.76;100.00
49841;BME280;35738;49.890;5.930;2023-07-31T01:02:43;96199.72;;;12.77;100.00
49841;BME280;35738;49.890;5.930;2023-07-31T01:05:10;96213.50;;;12.77;100.00
49841;BME280;35738;49.890;5.930;2023-07-31T01:07:42;96223.41;;;12.78;100.00
49841;BME280;35738;49.890;5.930;2023-07-31T01:10:18;96213.16;;;12.79;100.00
49841;BME280;35738;49.890;5.930;2023-07-31T01:12:48;96226.63;;;12.80;100.00
49841;BME280;35738;49.890;5.930;2023-07-31T01:15:14;96222.25;;;12.79;100.00
49841;BME280;35738;49.890;5.930;2023-07-31T01:17:42;96184.91;;;12.82;100.00
49841;BME280;35738;49.890;5.930;2023-07-31T01:20:17;96185.03;;;12.85;100.00
49841;BME280;35738;49.890;5.930;2023-07-31T01:28:50;96190.22;;;12.87;100.00
49841;BME280;35738;49.890;5.930;2023-07-31T01:31:23;96215.88;;;12.87;100.00
49841;BME280;35738;49.890;5.930;2023-07-31T01:33:53;96213.44;;;12.86;100.00
49841;BME280;35738;49.890;5.930;2023-07-31T01:36:21;96226.44;;;12.85;100.00
49841;BME280;35738;49.890;5.930;2023-07-31T01:38:48;96230.81;;;12.86;100.00
49841;BME280;35738;49.890;5.930;2023-07-31T01:41:17;96230.00;;;12.86;100.00
49841;BME280;35738;49.890;5.930;2023-07-31T01:43:45;96225.97;;;12.83;100.00
49841;BME280;35738;49.890;5.930;2023-07-31T01:46:12;96230.69;;;12.83;100.00
49841;BME280;35738;49.890;5.930;2023-07-31T01:48:38;96212.50;;;12.82;100.00
49841;BME280;35738;49.890;5.930;2023-07-31T01:51:05;96212.50;;;12.82;100.00
49841;BME280;35738;49.890;5.930;2023-07-31T01:53:32;96208.13;;;12.81;100.00
49841;BME280;35738;49.890;5.930;2023-07-31T01:55:59;96200.19;;;12.79;100.00
49841;BME280;35738;49.890;5.930;2023-07-31T01:58:25;96208.78;;;12.78;100.00
49841;BME280;35738;49.890;5.930;2023-07-31T02:00:52;96226.97;;;12.79;100.00
49841;BME280;35738;49.890;5.930;2023-07-31T02:03:19;96224.22;;;12.79;100.00
49841;BME280;35738;49.890;5.930;2023-07-31T02:05:47;96222.59;;;12.78;100.00
49841;BME280;35738;49.890;5.930;2023-07-31T02:08:14;96216.75;;;12.79;100.00
49841;BME280;35738;49.890;5.930;2023-07-31T02:10:41;96221.44;;;12.79;100.00
49841;BME280;35738;49.890;5.930;2023-07-31T02:13:08;96218.34;;;12.80;100.00
49841;BME280;35738;49.890;5.930;2023-07-31T02:15:35;96216.75;;;12.79;100.00
49841;BME280;35738;49.890;5.930;2023-07-31T02:18:01;96218.34;;;12.80;100.00
49841;BME280;35738;49.890;5.930;2023-07-31T02:20:28;96232.97;;;12.81;100.00
49841;BME280;35738;49.890;5.930;2023-07-31T02:22:55;96213.31;;;12.82;100.00
49841;BME280;35738;49.890;5.930;2023-07-31T02:25:21;96222.41;;;12.83;100.00
49841;BME280;35738;49.890;5.930;2023-07-31T02:27:48;96225.63;;;12.85;100.00
49841;BME280;35738;49.890;5.930;2023-07-31T02:30:15;96233.56;;;12.86;100.00
49841;BME280;35738;49.890;5.930;2023-07-31T02:32:41;96232.44;;;12.87;100.00
49841;BME280;35738;49.890;5.930;2023-07-31T02:35:08;96226.91;;;12.87;100.00
49841;BME280;35738;49.890;5.930;2023-07-31T02:37:36;96220.25;;;12.88;100.00
49841;BME280;35738;49.890;5.930;2023-07-31T02:40:02;96225.78;;;12.88;100.00
49841;BME280;35738;49.890;5.930;2023-07-31T02:42:31;96223.00;;;12.88;100.00
49841;BME280;35738;49.890;5.930;2023-07-31T02:44:58;96218.63;;;12.87;100.00
49841;BME280;35738;49.890;5.930;2023-07-31T02:47:24;96231.63;;;12.87;100.00
49841;BME280;35738;49.890;5.930;2023-07-31T02:49:51;96216.53;;;12.84;100.00
49841;BME280;35738;49.890;5.930;2023-07-31T02:52:18;96227.59;;;12.84;100.00
49841;BME280;35738;49.890;5.930;2023-07-31T02:54:44;96224.00;;;12.84;100.00
49841;BME280;35738;49.890;5.930;2023-07-31T02:57:11;96227.91;;;12.83;100.00
49841;BME280;35738;49.890;5.930;2023-07-31T02:59:38;96216.22;;;12.86;100.00
49841;BME280;35738;49.890;5.930;2023-07-31T03:02:05;96209.41;;;12.83;100.00
49841;BME280;35738;49.890;5.930;2023-07-31T03:04:32;96202.28;;;12.82;100.00
49841;BME280;35738;49.890;5.930;2023-07-31T03:06:59;96209.41;;;12.83;100.00
49841;BME280;35738;49.890;5.930;2023-07-31T03:09:25;96203.41;;;12.81;100.00
49841;BME280;35738;49.890;5.930;2023-07-31T03:11:52;96209.41;;;12.83;100.00
49841;BME280;35738;49.890;5.930;2023-07-31T03:14:20;96199.03;;;12.80;100.00
49841;BME280;35738;49.890;5.930;2023-07-31T03:16:46;96200.78;;;12.85;100.00
49841;BME280;35738;49.890;5.930;2023-07-31T03:19:13;96190.22;;;12.87;100.00
49841;BME280;35738;49.890;5.930;2023-07-31T03:21:40;96187.47;;;12.87;100.00
49841;BME280;35738;49.890;5.930;2023-07-31T03:24:07;96189.88;;;12.88;100.00
49841;BME280;35738;49.890;5.930;2023-07-31T03:26:33;96191.84;;;12.88;100.00
49841;BME280;35738;49.890;5.930;2023-07-31T03:29:00;96181.59;;;12.88;100.00
49841;BME280;35738;49.890;5.930;2023-07-31T03:31:27;96175.59;;;12.86;100.00
49841;BME280;35738;49.890;5.930;2023-07-31T03:33:54;96172.38;;;12.84;100.00
49841;BME280;35738;49.890;5.930;2023-07-31T03:36:20;96176.28;;;12.83;100.00
49841;BME280;35738;49.890;5.930;2023-07-31T03:38:47;96168.34;;;12.82;100.00
49841;BME280;35738;49.890;5.930;2023-07-31T03:41:14;96176.28;;;12.83;100.00
49841;BME280;35738;49.890;5.930;2023-07-31T03:43:40;96166.72;;;12.81;100.00
49841;BME280;35738;49.890;5.930;2023-07-31T03:46:07;96172.91;;;12.78;100.00
49841;BME280;35738;49.890;5.930;2023-07-31T03:48:33;96162.81;;;12.82;100.00
49841;BME280;35738;49.890;5.930;2023-07-31T03:51:00;96154.53;;;12.82;100.00
49841;BME280;35738;49.890;5.930;2023-07-31T03:53:27;96159.25;;;12.81;100.00
49841;BME280;35738;49.890;5.930;2023-07-31T03:55:53;96160.06;;;12.82;100.00
49841;BME280;35738;49.890;5.930;2023-07-31T03:58:20;96154.19;;;12.83;100.00
49841;BME280;35738;49.890;5.930;2023-07-31T04:00:46;96164.44;;;12.83;100.00
49841;BME280;35738;49.890;5.930;2023-07-31T04:03:13;96162.69;;;12.78;100.00
49841;BME280;35738;49.890;5.930;2023-07-31T04:05:40;96155.06;;;12.75;100.00
49841;BME280;35738;49.890;5.930;2023-07-31T04:08:07;96152.19;;;12.71;100.00
49841;BME280;35738;49.890;5.930;2023-07-31T04:10:34;96134.69;;;12.67;100.00
49841;BME280;35738;49.890;5.930;2023-07-31T05:54:52;95972.72;;;13.74;100.00
49841;BME280;35738;49.890;5.930;2023-07-31T05:57:19;95972.09;;;13.93;100.00
49841;BME280;35738;49.890;5.930;2023-07-31T05:59:45;95966.63;;;14.61;100.00
49841;BME280;35738;49.890;5.930;2023-07-31T06:02:12;95947.63;;;15.35;100.00
49841;BME280;35738;49.890;5.930;2023-07-31T06:04:39;95928.81;;;16.30;100.00
49841;BME280;35738;49.890;5.930;2023-07-31T06:07:06;95885.59;;;16.48;100.00
49841;BME280;35738;49.890;5.930;2023-07-31T06:09:33;95848.44;;;15.75;100.00
49841;BME280;35738;49.890;5.930;2023-07-31T06:12:00;95831.22;;;15.35;100.00
49841;BME280;35738;49.890;5.930;2023-07-31T06:14:26;95830.38;;;14.83;100.00
49841;BME280;35738;49.890;5.930;2023-07-31T06:16:53;95848.16;;;14.51;100.00
49841;BME280;35738;49.890;5.930;2023-07-31T06:19:20;95865.22;;;14.25;100.00
49841;BME280;35738;49.890;5.930;2023-07-31T06:21:47;95885.53;;;14.17;100.00
49841;BME280;35738;49.890;5.930;2023-07-31T06:24:14;95889.22;;;14.09;100.00
49841;BME280;35738;49.890;5.930;2023-07-31T06:26:46;95911.13;;;14.14;100.00
49841;BME280;35738;49.890;5.930;2023-07-31T06:29:12;95913.75;;;14.10;100.00
49841;BME280;35738;49.890;5.930;2023-07-31T06:31:40;95921.84;;;14.15;100.00
49841;BME280;35738;49.890;5.930;2023-07-31T06:34:08;95924.34;;;14.20;100.00
49841;BME280;35738;49.890;5.930;2023-07-31T06:36:34;95917.41;;;14.26;100.00
49841;BME280;35738;49.890;5.930;2023-07-31T06:39:01;95899.00;;;14.18;100.00
49841;BME280;35738;49.890;5.930;2023-07-31T06:41:28;95904.88;;;14.17;100.00
49841;BME280;35738;49.890;5.930;2023-07-31T06:43:54;95899.91;;;14.22;100.00
49841;BME280;35738;49.890;5.930;2023-07-31T06:46:22;95902.06;;;14.29;100.00
49841;BME280;35738;49.890;5.930;2023-07-31T06:48:48;95900.56;;;14.31;100.00
49841;BME280;35738;49.890;5.930;2023-07-31T06:51:16;95902.81;;;14.42;100.00
49841;BME280;35738;49.890;5.930;2023-07-31T06:53:42;95897.78;;;14.31;100.00
49841;BME280;35738;49.890;5.930;2023-07-31T06:56:11;95877.78;;;14.22;100.00
49841;BME280;35738;49.890;5.930;2023-07-31T06:58:39;95871.25;;;14.15;100.00
49841;BME280;35738;49.890;5.930;2023-07-31T07:01:06;95864.91;;;14.14;100.00
49841;BME280;35738;49.890;5.930;2023-07-31T07:03:33;95876.66;;;14.11;100.00
49841;BME280;35738;49.890;5.930;2023-07-31T07:06:00;95881.50;;;14.14;100.00
49841;BME280;35738;49.890;5.930;2023-07-31T07:08:27;95881.72;;;14.21;100.00
49841;BME280;35738;49.890;5.930;2023-07-31T07:10:54;95873.34;;;14.34;100.00
49841;BME280;35738;49.890;5.930;2023-07-31T07:13:21;95855.84;;;14.29;100.00
49841;BME280;35738;49.890;5.930;2023-07-31T07:15:48;95843.06;;;14.53;100.00
49841;BME280;35738;49.890;5.930;2023-07-31T07:18:16;95840.47;;;14.60;100.00
49841;BME280;35738;49.890;5.930;2023-07-31T07:20:47;95803.69;;;14.59;100.00
49841;BME280;35738;49.890;5.930;2023-07-31T07:23:14;95807.72;;;14.62;100.00
49841;BME280;35738;49.890;5.930;2023-07-31T07:25:41;95796.19;;;14.76;100.00
49841;BME280;35738;49.890;5.930;2023-07-31T07:28:08;95783.75;;;14.85;100.00
49841;BME280;35738;49.890;5.930;2023-07-31T07:30:36;95772.69;;;14.85;100.00
49841;BME280;35738;49.890;5.930;2023-07-31T07:33:04;95764.66;;;14.96;100.00
49841;BME280;35738;49.890;5.930;2023-07-31T07:35:35;95750.41;;;15.13;100.00
49841;BME280;35738;49.890;5.930;2023-07-31T07:38:03;95749.13;;;15.26;100.00
49841;BME280;35738;49.890;5.930;2023-07-31T07:40:30;95736.22;;;15.34;100.00
49841;BME280;35738;49.890;5.930;2023-07-31T07:42:57;95720.41;;;15.54;100.00
49841;BME280;35738;49.890;5.930;2023-07-31T07:45:24;95696.97;;;15.67;100.00
49841;BME280;35738;49.890;5.930;2023-07-31T07:47:50;95684.44;;;15.96;100.00
49841;BME280;35738;49.890;5.930;2023-07-31T07:50:17;95670.31;;;16.05;100.00
49841;BME280;35738;49.890;5.930;2023-07-31T07:52:44;95643.69;;;15.77;100.00
49841;BME280;35738;49.890;5.930;2023-07-31T07:55:10;95643.47;;;15.47;100.00
49841;BME280;35738;49.890;5.930;2023-07-31T07:57:37;95642.38;;;15.33;100.00
49841;BME280;35738;49.890;5.930;2023-07-31T08:00:04;95650.19;;;15.27;100.00
49841;BME280;35738;49.890;5.930;2023-07-31T08:02:32;95662.72;;;15.40;100.00
49841;BME280;35738;49.890;5.930;2023-07-31T08:04:59;95659.41;;;15.54;100.00
49841;BME280;35738;49.890;5.930;2023-07-31T08:07:25;95641.72;;;15.58;100.00
49841;BME280;35738;49.890;5.930;2023-07-31T08:09:52;95632.97;;;15.37;100.00
49841;BME280;35738;49.890;5.930;2023-07-31T08:12:19;95628.81;;;15.08;100.00
49841;BME280;35738;49.890;5.930;2023-07-31T08:14:45;95640.72;;;15.09;100.00
49841;BME280;35738;49.890;5.930;2023-07-31T08:17:13;95638.81;;;15.13;100.00
49841;BME280;35738;49.890;5.930;2023-07-31T08:19:40;95659.72;;;15.30;100.00
49841;BME280;35738;49.890;5.930;2023-07-31T08:22:07;95650.19;;;15.27;100.00
49841;BME280;35738;49.890;5.930;2023-07-31T08:24:34;95653.63;;;15.20;100.00
49841;BME280;35738;49.890;5.930;2023-07-31T08:27:00;95668.41;;;15.09;100.00
49841;BME280;35738;49.890;5.930;2023-07-31T08:29:27;95669.41;;;15.01;100.00
49841;BME280;35738;49.890;5.930;2023-07-31T08:31:54;95668.97;;;14.99;100.00
49841;BME280;35738;49.890;5.930;2023-07-31T08:34:23;95677.00;;;15.04;100.00
49841;BME280;35738;49.890;5.930;2023-07-31T08:36:49;95679.03;;;15.07;100.00
49841;BME280;35738;49.890;5.930;2023-07-31T08:39:16;95664.84;;;15.08;100.00
49841;BME280;35738;49.890;5.930;2023-07-31T08:41:43;95655.00;;;15.11;100.00
49841;BME280;35738;49.890;5.930;2023-07-31T08:44:10;95657.91;;;15.18;100.00
49841;BME280;35738;49.890;5.930;2023-07-31T08:46:37;95653.59;;;15.40;100.00
49841;BME280;35738;49.890;5.930;2023-07-31T08:49:04;95645.06;;;15.48;100.00
49841;BME280;35738;49.890;5.930;2023-07-31T08:51:36;95633.03;;;15.41;100.00
49841;BME280;35738;49.890;5.930;2023-07-31T08:54:03;95626.81;;;15.47;100.00
49841;BME280;35738;49.890;5.930;2023-07-31T08:56:33;95632.38;;;15.47;100.00
49841;BME280;35738;49.890;5.930;2023-07-31T08:59:02;95611.22;;;15.39;100.00
49841;BME280;35738;49.890;5.930;2023-07-31T09:01:34;95602.91;;;15.39;100.00
49841;BME280;35738;49.890;5.930;2023-07-31T09:04:04;95606.31;;;15.52;100.00
49841;BME280;35738;49.890;5.930;2023-07-31T09:06:32;95581.63;;;15.63;100.00
49841;BME280;35738;49.890;5.930;2023-07-31T09:08:58;95585.06;;;16.02;100.00
49841;BME280;35738;49.890;5.930;2023-07-31T09:11:25;95571.16;;;16.25;100.00
49841;BME280;35738;49.890;5.930;2023-07-31T09:13:53;95556.22;;;16.59;100.00
49841;BME280;35738;49.890;5.930;2023-07-31T09:16:28;95543.78;;;16.49;100.00
49841;BME280;35738;49.890;5.930;2023-07-31T09:18:58;95546.09;;;16.70;100.00
49841;BME280;35738;49.890;5.930;2023-07-31T09:21:28;95545.97;;;16.63;100.00
49841;BME280;35738;49.890;5.930;2023-07-31T09:23:55;95541.06;;;16.27;100.00
49841;BME280;35738;49.890;5.930;2023-07-31T09:26:36;95561.09;;;15.90;100.00
49841;BME280;35738;49.890;5.930;2023-07-31T09:29:05;95581.56;;;15.82;100.00
49841;BME280;35738;49.890;5.930;2023-07-31T09:31:42;95573.44;;;15.70;100.00
49841;BME280;35738;49.890;5.930;2023-07-31T09:34:09;95588.75;;;15.44;100.00
49841;BME280;35738;49.890;5.930;2023-07-31T09:36:41;95610.50;;;15.42;100.00
49841;BME280;35738;49.890;5.930;2023-07-31T09:39:10;95624.19;;;15.54;100.00
49841;BME280;35738;49.890;5.930;2023-07-31T09:41:41;95632.59;;;15.58;100.00
49841;BME280;35738;49.890;5.930;2023-07-31T09:44:08;95639.53;;;15.68;100.00
49841;BME280;35738;49.890;5.930;2023-07-31T09:46:36;95639.97;;;15.70;100.00
49841;BME280;35738;49.890;5.930;2023-07-31T09:49:10;95644.06;;;15.76;100.00
49841;BME280;35738;49.890;5.930;2023-07-31T09:51:39;95632.09;;;15.72;100.00
49841;BME280;35738;49.890;5.930;2023-07-31T09:56:46;95663.19;;;15.62;100.00
49841;BME280;35738;49.890;5.930;2023-07-31T09:59:15;95646.69;;;15.69;100.00
49841;BME280;35738;49.890;5.930;2023-07-31T10:01:43;95658.72;;;15.99;100.00
49841;BME280;35738;49.890;5.930;2023-07-31T10:04:11;95655.94;;;16.22;100.00
49841;BME280;35738;49.890;5.930;2023-07-31T10:06:40;95629.69;;;16.39;100.00
49841;BME280;35738;49.890;5.930;2023-07-31T10:09:09;95647.47;;;16.61;100.00
49841;BME280;35738;49.890;5.930;2023-07-31T10:11:41;95649.66;;;16.48;100.00
49841;BME280;35738;49.890;5.930;2023-07-31T10:14:10;95650.44;;;16.26;100.00
49841;BME280;35738;49.890;5.930;2023-07-31T10:16:38;95646.63;;;16.11;100.00
49841;BME280;35738;49.890;5.930;2023-07-31T10:19:07;95675.25;;;15.92;100.00
49841;BME280;35738;49.890;5.930;2023-07-31T10:21:34;95680.06;;;15.95;100.00
49841;BME280;35738;49.890;5.930;2023-07-31T10:24:04;95686.34;;;15.92;100.00
49841;BME280;35738;49.890;5.930;2023-07-31T10:26:32;95686.53;;;15.61;100.00
49841;BME280;35738;49.890;5.930;2023-07-31T10:29:00;95688.22;;;15.11;100.00
49841;BME280;35738;49.890;5.930;2023-07-31T10:31:28;95706.16;;;14.98;100.00
49841;BME280;35738;49.890;5.930;2023-07-31T10:33:57;95715.72;;;14.84;100.00
49841;BME280;35738;49.890;5.930;2023-07-31T10:36:26;95730.81;;;14.71;100.00
49841;BME280;35738;49.890;5.930;2023-07-31T10:38:55;95741.28;;;14.30;100.00
49841;BME280;35738;49.890;5.930;2023-07-31T10:41:30;95762.94;;;14.28;100.00
49841;BME280;35738;49.890;5.930;2023-07-31T10:43:59;95789.38;;;14.26;100.00
49841;BME280;35738;49.890;5.930;2023-07-31T10:46:27;95794.63;;;14.15;100.00
49841;BME280;35738;49.890;5.930;2023-07-31T10:48:59;95782.16;;;14.09;100.00
49841;BME280;35738;49.890;5.930;2023-07-31T10:51:36;95801.06;;;14.07;100.00
49841;BME280;35738;49.890;5.930;2023-07-31T10:54:17;95818.78;;;13.90;100.00
49841;BME280;35738;49.890;5.930;2023-07-31T10:56:45;95834.53;;;13.74;100.00
49841;BME280;35738;49.890;5.930;2023-07-31T10:59:13;95848.81;;;13.64;100.00
49841;BME280;35738;49.890;5.930;2023-07-31T11:01:52;95864.56;;;13.76;100.00
49841;BME280;35738;49.890;5.930;2023-07-31T11:04:25;95885.28;;;13.82;100.00
49841;BME280;35738;49.890;5.930;2023-07-31T11:07:01;95878.16;;;13.81;100.00
49841;BME280;35738;49.890;5.930;2023-07-31T11:09:31;95864.06;;;13.86;100.00
49841;BME280;35738;49.890;5.930;2023-07-31T11:11:59;95865.22;;;13.85;100.00
49841;BME280;35738;49.890;5.930;2023-07-31T11:14:26;95854.41;;;13.80;100.00
49841;BME280;35738;49.890;5.930;2023-07-31T11:16:53;95846.38;;;13.75;100.00
49841;BME280;35738;49.890;5.930;2023-07-31T11:19:26;95847.44;;;13.70;100.00
49841;BME280;35738;49.890;5.930;2023-07-31T11:21:53;95840.69;;;13.55;100.00
49841;BME280;35738;49.890;5.930;2023-07-31T11:24:20;95842.56;;;13.39;100.00
49841;BME280;35738;49.890;5.930;2023-07-31T11:26:53;95844.50;;;13.39;100.00
49841;BME280;35738;49.890;5.930;2023-07-31T11:29:20;95851.94;;;13.62;100.00
49841;BME280;35738;49.890;5.930;2023-07-31T11:31:47;95861.16;;;13.54;100.00
49841;BME280;35738;49.890;5.930;2023-07-31T11:34:15;95867.16;;;13.56;100.00
49841;BME280;35738;49.890;5.930;2023-07-31T11:36:53;95866.91;;;13.61;100.00
49841;BME280;35738;49.890;5.930;2023-07-31T11:39:19;95878.16;;;13.81;100.00
49841;BME280;35738;49.890;5.930;2023-07-31T11:41:46;95880.69;;;13.74;100.00
49841;BME280;35738;49.890;5.930;2023-07-31T11:44:12;95870.00;;;13.72;100.00
49841;BME280;35738;49.890;5.930;2023-07-31T11:46:56;95864.03;;;13.58;100.00
49841;BME280;35738;49.890;5.930;2023-07-31T11:49:23;95867.97;;;13.57;100.00
49841;BME280;35738;49.890;5.930;2023-07-31T11:51:50;95856.81;;;13.53;100.00
49841;BME280;35738;49.890;5.930;2023-07-31T11:54:16;95860.81;;;13.56;100.00
49841;BME280;35738;49.890;5.930;2023-07-31T11:56:43;95851.50;;;13.60;100.00
49841;BME280;35738;49.890;5.930;2023-07-31T11:59:10;95873.94;;;13.59;100.00
49841;BME280;35738;49.890;5.930;2023-07-31T12:01:39;95884.97;;;13.71;100.00
49841;BME280;35738;49.890;5.930;2023-07-31T12:04:06;95858.75;;;13.93;100.00
49841;BME280;35738;49.890;5.930;2023-07-31T12:06:37;95843.53;;;13.99;100.00
49841;BME280;35738;49.890;5.930;2023-07-31T12:09:05;95825.97;;;14.07;100.00
49841;BME280;35738;49.890;5.930;2023-07-31T12:11:46;95849.22;;;14.18;100.00
49841;BME280;35738;49.890;5.930;2023-07-31T12:14:24;95854.50;;;14.23;100.00
49841;BME280;35738;49.890;5.930;2023-07-31T12:17:00;95843.19;;;14.28;100.00
49841;BME280;35738;49.890;5.930;2023-07-31T12:19:27;95846.81;;;14.45;100.00
49841;BME280;35738;49.890;5.930;2023-07-31T12:21:58;95826.38;;;14.65;100.00
49841;BME280;35738;49.890;5.930;2023-07-31T12:24:28;95822.97;;;14.72;100.00
49841;BME280;35738;49.890;5.930;2023-07-31T12:26:55;95808.59;;;14.66;100.00
49841;BME280;35738;49.890;5.930;2023-07-31T12:29:22;95786.09;;;14.52;100.00
49841;BME280;35738;49.890;5.930;2023-07-31T12:31:48;95778.13;;;14.35;100.00
49841;BME280;35738;49.890;5.930;2023-07-31T12:34:17;95774.47;;;14.30;100.00
49841;BME280;35738;49.890;5.930;2023-07-31T12:36:44;95762.31;;;14.19;100.00
49841;BME280;35738;49.890;5.930;2023-07-31T12:39:11;95756.47;;;14.09;100.00
49841;BME280;35738;49.890;5.930;2023-07-31T12:41:37;95757.19;;;14.06;100.00
49841;BME280;35738;49.890;5.930;2023-07-31T12:44:04;95752.47;;;14.06;100.00
49841;BME280;35738;49.890;5.930;2023-07-31T12:46:31;95757.50;;;14.16;100.00
49841;BME280;35738;49.890;5.930;2023-07-31T12:48:57;95751.25;;;14.19;100.00
49841;BME280;35738;49.890;5.930;2023-07-31T12:51:24;95722.44;;;14.36;100.00
49841;BME280;35738;49.890;5.930;2023-07-31T12:53:51;95713.97;;;14.29;100.00
49841;BME280;35738;49.890;5.930;2023-07-31T12:56:18;95701.31;;;14.44;100.00
49841;BME280;35738;49.890;5.930;2023-07-31T12:58:45;95693.44;;;14.46;100.00
49841;BME280;35738;49.890;5.930;2023-07-31T13:01:11;95689.09;;;14.45;100.00
49841;BME280;35738;49.890;5.930;2023-07-31T13:03:38;95674.53;;;14.48;100.00
49841;BME280;35738;49.890;5.930;2023-07-31T13:06:05;95666.94;;;14.45;100.00
49841;BME280;35738;49.890;5.930;2023-07-31T13:08:32;95667.84;;;14.49;100.00
49841;BME280;35738;49.890;5.930;2023-07-31T13:10:58;95665.78;;;14.46;100.00
49841;BME280;35738;49.890;5.930;2023-07-31T13:13:25;95655.16;;;14.48;100.00
49841;BME280;35738;49.890;5.930;2023-07-31T13:15:52;95642.72;;;14.42;100.00
49841;BME280;35738;49.890;5.930;2023-07-31T13:18:19;95654.28;;;14.44;100.00
49841;BME280;35738;49.890;5.930;2023-07-31T13:20:46;95640.25;;;14.37;100.00
49841;BME280;35738;49.890;5.930;2023-07-31T13:23:14;95645.78;;;14.21;100.00
49841;BME280;35738;49.890;5.930;2023-07-31T13:25:44;95657.13;;;14.16;100.00
49841;BME280;35738;49.890;5.930;2023-07-31T13:28:11;95647.31;;;14.18;100.00
49841;BME280;35738;49.890;5.930;2023-07-31T13:30:38;95642.94;;;14.17;100.00
49841;BME280;35738;49.890;5.930;2023-07-31T13:33:05;95641.13;;;14.09;100.00
49841;BME280;35738;49.890;5.930;2023-07-31T13:35:43;95642.56;;;14.03;100.00
49841;BME280;35738;49.890;5.930;2023-07-31T13:38:09;95638.19;;;14.02;100.00
49841;BME280;35738;49.890;5.930;2023-07-31T13:40:36;95637.47;;;14.05;100.00
49841;BME280;35738;49.890;5.930;2023-07-31T13:43:03;95627.75;;;14.11;100.00
49841;BME280;35738;49.890;5.930;2023-07-31T13:45:29;95637.59;;;14.24;100.00
49841;BME280;35738;49.890;5.930;2023-07-31T13:47:56;95647.94;;;14.27;100.00
49841;BME280;35738;49.890;5.930;2023-07-31T13:50:23;95631.25;;;14.24;100.00
49841;BME280;35738;49.890;5.930;2023-07-31T13:52:51;95653.38;;;14.24;100.00
49841;BME280;35738;49.890;5.930;2023-07-31T13:55:18;95652.50;;;14.20;100.00
49841;BME280;35738;49.890;5.930;2023-07-31T13:57:45;95665.53;;;14.19;100.00
49841;BME280;35738;49.890;5.930;2023-07-31T14:00:12;95657.72;;;14.09;100.00
49841;BME280;35738;49.890;5.930;2023-07-31T14:02:39;95665.22;;;14.09;100.00
49841;BME280;35738;49.890;5.930;2023-07-31T14:05:07;95669.34;;;14.15;100.00
49841;BME280;35738;49.890;5.930;2023-07-31T14:07:36;95669.72;;;14.13;100.00
49841;BME280;35738;49.890;5.930;2023-07-31T14:10:03;95672.00;;;14.11;100.00
49841;BME280;35738;49.890;5.930;2023-07-31T14:12:30;95666.47;;;14.11;100.00
49841;BME280;35738;49.890;5.930;2023-07-31T14:15:09;95668.09;;;14.12;100.00
49841;BME280;35738;49.890;5.930;2023-07-31T14:17:36;95683.88;;;14.12;100.00
49841;BME280;35738;49.890;5.930;2023-07-31T14:20:03;95683.19;;;14.15;100.00
49841;BME280;35738;49.890;5.930;2023-07-31T14:22:31;95691.66;;;14.22;100.00
49841;BME280;35738;49.890;5.930;2023-07-31T14:25:00;95682.81;;;14.16;100.00
49841;BME280;35738;49.890;5.930;2023-07-31T14:27:27;95671.06;;;14.19;100.00
49841;BME280;35738;49.890;5.930;2023-07-31T14:29:53;95668.56;;;14.14;100.00
49841;BME280;35738;49.890;5.930;2023-07-31T14:32:22;95659.53;;;14.17;100.00
49841;BME280;35738;49.890;5.930;2023-07-31T14:34:53;95645.44;;;14.22;100.00
49841;BME280;35738;49.890;5.930;2023-07-31T14:37:21;95645.88;;;14.24;100.00
49841;BME280;35738;49.890;5.930;2023-07-31T14:39:49;95640.34;;;14.24;100.00
49841;BME280;35738;49.890;5.930;2023-07-31T14:42:17;95649.19;;;14.30;100.00
49841;BME280;35738;49.890;5.930;2023-07-31T14:44:44;95648.38;;;14.29;100.00